Omak, Washington
Current Conditions -  °F | °C
As of 12:10 PM on Thursday 18 Dec 2014 (Local Time) from KOMK Reporting Station
Overcast Overcast  
Wind Chill: 32°   Ceiling: 3600
Heat Index: 37°   Visibility: 10mi
Dew Point: 35°   Wind: 6mph
Humidity: 93%   Direction: 180°S
Pressure: 30"   Gusts: NA
Location:  48.41°N, 119.53°W
Report Text: KOMK 182010Z AUTO 18005KT 10SM FEW009 FEW029 OVC036 03/02 A3000 RMK AO2 T00280017
Loading
Personal Weather Stations






























Interactive Weather Map New forecast layout! Learn more

10-Day Weather Forecast

Advertisements
Track Severe Weather on mobile